Time;durP1;ratioP1;P1;durP2;ratioP2;P2;SDS_P1;SDS_P2;PMS_P1;PMS_P2;Temp;Humidity;BMP_temperature;BMP_pressure;BME280_temperature;BME280_humidity;BME280_pressure;Samples;Min_cycle;Max_cycle;Signal;HPM_P1;HPM_P2
2023/04/22 00:00:17;;;;;;;59.72;34.28;;;9.10;99.90;;;;;;5032854;28;20049;-76
2023/04/22 00:02:43;;;;;;;31.25;28.33;;;8.90;99.90;;;;;;5013889;28;20394;-76
2023/04/22 00:05:12;;;;;;;34.80;31.40;;;8.90;99.90;;;;;;5046913;28;20492;-76
2023/04/22 00:07:38;;;;;;;38.47;34.75;;;8.90;99.90;;;;;;5012752;28;20057;-75
2023/04/22 00:10:04;;;;;;;43.33;39.05;;;9.00;99.90;;;;;;5029304;28;20052;-76
2023/04/22 00:12:30;;;;;;;44.85;40.45;;;9.00;99.90;;;;;;5025270;28;20543;-75
2023/04/22 00:14:56;;;;;;;46.38;41.70;;;9.00;99.90;;;;;;5024057;28;20041;-75
2023/04/22 00:17:22;;;;;;;48.45;43.53;;;9.00;99.90;;;;;;5031718;28;20045;-76
2023/04/22 00:19:47;;;;;;;48.70;43.75;;;8.90;99.90;;;;;;5037755;28;20040;-75
2023/04/22 00:22:13;;;;;;;49.10;43.95;;;8.90;99.90;;;;;;5031570;28;20041;-76
2023/04/22 00:24:38;;;;;;;52.50;46.80;;;8.90;99.90;;;;;;5032278;28;20541;-76
2023/04/22 00:27:04;;;;;;;168.43;61.30;;;8.90;99.90;;;;;;5006437;28;20038;-76
2023/04/22 00:29:33;;;;;;;66.57;47.10;;;8.80;99.90;;;;;;5031422;28;20029;-76
2023/04/22 00:31:58;;;;;;;55.50;49.38;;;8.70;99.90;;;;;;5013553;28;20051;-76
2023/04/22 00:34:24;;;;;;;80.95;54.92;;;8.60;99.90;;;;;;5031373;28;20116;-76
2023/04/22 00:36:50;;;;;;;74.28;55.10;;;8.60;99.90;;;;;;5017267;28;20045;-75
2023/04/22 00:39:18;;;;;;;75.65;58.42;;;8.50;99.90;;;;;;5012357;28;20049;-76
2023/04/22 00:41:45;;;;;;;224.50;71.28;;;8.50;99.90;;;;;;5027244;28;20034;-76
2023/04/22 00:44:11;;;;;;;133.43;65.22;;;8.50;99.90;;;;;;5029068;28;20045;-75
2023/04/22 00:46:38;;;;;;;99.70;55.58;;;8.40;99.90;;;;;;5015253;28;20422;-76
2023/04/22 00:49:04;;;;;;;288.80;61.17;;;8.40;99.90;;;;;;5031153;28;20538;-76
2023/04/22 00:51:31;;;;;;;78.22;57.08;;;8.30;99.90;;;;;;5038516;28;20060;-76
2023/04/22 00:54:03;;;;;;;81.25;58.30;;;8.10;99.90;;;;;;5015511;28;20049;-76
2023/04/22 00:56:32;;;;;;;70.40;60.00;;;8.20;99.90;;;;;;5027424;28;20048;-76
2023/04/22 00:58:59;;;;;;;133.48;70.63;;;8.30;99.90;;;;;;5017994;28;20120;-76
2023/04/22 01:01:25;;;;;;;75.22;59.47;;;8.30;99.90;;;;;;5020188;28;20438;-76
2023/04/22 01:03:51;;;;;;;82.03;61.88;;;8.20;99.90;;;;;;5031077;28;20053;-76
2023/04/22 01:06:19;;;;;;;95.80;66.50;;;8.30;99.90;;;;;;5011575;28;20104;-75
2023/04/22 01:08:45;;;;;;;88.50;61.88;;;8.30;99.90;;;;;;5015231;28;20044;-76
2023/04/22 01:11:13;;;;;;;99.88;65.80;;;8.30;99.90;;;;;;5035999;28;20087;-76
2023/04/22 01:13:39;;;;;;;131.38;70.63;;;8.30;99.90;;;;;;5030681;28;20391;-76
2023/04/22 01:16:07;;;;;;;188.77;83.95;;;8.30;99.90;;;;;;5014653;28;20057;-76
2023/04/22 01:18:34;;;;;;;195.77;83.78;;;8.20;99.90;;;;;;5030241;28;20041;-76
2023/04/22 01:21:02;;;;;;;198.45;89.25;;;8.30;99.90;;;;;;5019219;28;20557;-76
2023/04/22 01:23:29;;;;;;;139.45;81.05;;;8.20;99.90;;;;;;5022772;28;20041;-76
2023/04/22 01:25:54;;;;;;;427.85;113.63;;;8.20;99.90;;;;;;5031027;28;20049;-76
2023/04/22 01:28:21;;;;;;;212.70;82.72;;;8.30;99.90;;;;;;5014601;28;20045;-76
2023/04/22 01:30:48;;;;;;;152.45;68.03;;;8.00;99.90;;;;;;5035869;28;20041;-76
2023/04/22 01:33:15;;;;;;;214.80;85.28;;;8.00;99.90;;;;;;5011432;28;20044;-75
2023/04/22 01:35:46;;;;;;;287.77;85.07;;;7.90;99.90;;;;;;5005773;28;20048;-75
2023/04/22 01:38:17;;;;;;;148.18;72.32;;;7.90;99.90;;;;;;5031039;28;20045;-76
2023/04/22 01:40:45;;;;;;;72.70;62.00;;;7.80;99.90;;;;;;5034861;28;20622;-76
2023/04/22 01:43:13;;;;;;;86.53;69.07;;;7.70;99.90;;;;;;5020872;28;20042;-76
2023/04/22 01:45:39;;;;;;;75.10;63.53;;;7.80;99.90;;;;;;5019618;28;20544;-76
2023/04/22 01:48:09;;;;;;;75.97;64.40;;;7.90;99.90;;;;;;5021930;28;20049;-76
2023/04/22 01:50:38;;;;;;;83.38;66.13;;;7.90;99.90;;;;;;5023968;28;20091;-76
2023/04/22 01:53:06;;;;;;;64.28;57.17;;;8.00;99.90;;;;;;5005827;28;20038;-76
2023/04/22 01:55:34;;;;;;;64.93;58.00;;;8.00;99.90;;;;;;5027409;28;20038;-76
2023/04/22 01:58:04;;;;;;;66.68;59.60;;;8.10;99.90;;;;;;5037953;28;20041;-75
2023/04/22 02:00:30;;;;;;;69.85;61.55;;;8.10;99.90;;;;;;5026623;28;20486;-76
2023/04/22 02:02:56;;;;;;;66.70;59.47;;;8.10;99.90;;;;;;5022992;28;20061;-76
2023/04/22 02:05:21;;;;;;;77.13;64.00;;;8.10;99.90;;;;;;5012038;28;20033;-76
2023/04/22 02:07:51;;;;;;;76.93;64.32;;;8.10;99.90;;;;;;5033184;28;20071;-76
2023/04/22 02:10:17;;;;;;;95.07;68.97;;;8.00;99.90;;;;;;5027831;28;20470;-76
2023/04/22 02:12:48;;;;;;;71.00;60.88;;;7.90;99.90;;;;;;5034622;28;20037;-76
2023/04/22 02:15:14;;;;;;;77.53;62.05;;;7.90;99.90;;;;;;5021337;28;20042;-76
2023/04/22 02:17:41;;;;;;;302.13;92.75;;;8.00;99.90;;;;;;5031041;28;20045;-75
2023/04/22 02:20:10;;;;;;;117.43;62.53;;;7.90;99.90;;;;;;5040971;28;20049;-76
2023/04/22 02:22:37;;;;;;;78.00;60.63;;;7.80;99.90;;;;;;5034078;28;20041;-76
2023/04/22 02:25:03;;;;;;;58.42;52.42;;;7.70;99.90;;;;;;5011449;28;20064;-76
2023/04/22 02:27:29;;;;;;;129.07;73.53;;;7.70;99.90;;;;;;5032058;28;20409;-76
2023/04/22 02:29:54;;;;;;;106.90;63.33;;;7.60;99.90;;;;;;5033444;28;20034;-76
2023/04/22 02:32:20;;;;;;;110.95;61.58;;;7.60;99.90;;;;;;5023935;28;20037;-76
2023/04/22 02:34:47;;;;;;;106.97;64.22;;;7.50;99.90;;;;;;5033652;28;20130;-76
2023/04/22 02:37:15;;;;;;;117.22;66.78;;;7.50;99.90;;;;;;5036460;28;20506;-76
2023/04/22 02:39:44;;;;;;;323.38;77.13;;;7.40;99.90;;;;;;5027720;28;20441;-76
2023/04/22 02:42:09;;;;;;;87.15;59.85;;;7.30;99.90;;;;;;5033270;28;20095;-76
2023/04/22 02:44:35;;;;;;;63.15;48.60;;;7.30;99.90;;;;;;5016773;28;20044;-76
2023/04/22 02:47:02;;;;;;;172.75;66.82;;;7.20;99.90;;;;;;5011043;28;20044;-76
2023/04/22 02:49:28;;;;;;;75.30;51.63;;;7.10;99.90;;;;;;5042294;28;20055;-76
2023/04/22 02:51:54;;;;;;;68.63;55.58;;;7.10;99.90;;;;;;5034134;28;20125;-76
2023/04/22 02:54:19;;;;;;;81.25;57.58;;;7.00;99.90;;;;;;5018544;28;20099;-76
2023/04/22 02:56:47;;;;;;;124.22;64.63;;;7.00;99.90;;;;;;5011182;28;20498;-76
2023/04/22 02:59:13;;;;;;;117.55;65.13;;;6.90;99.90;;;;;;5031008;28;20038;-76
2023/04/22 03:01:41;;;;;;;94.53;63.72;;;6.90;99.90;;;;;;5013905;28;20095;-75
2023/04/22 03:04:07;;;;;;;147.60;66.60;;;6.90;99.90;;;;;;5017065;28;20042;-76
2023/04/22 03:06:32;;;;;;;96.40;64.70;;;6.90;99.90;;;;;;5025318;28;20041;-75
2023/04/22 03:08:58;;;;;;;86.97;56.83;;;6.90;99.90;;;;;;5032780;28;20037;-75
2023/04/22 03:11:26;;;;;;;98.07;58.25;;;6.90;99.90;;;;;;5032720;28;20033;-76
2023/04/22 03:13:52;;;;;;;96.80;62.30;;;6.80;99.90;;;;;;5020859;28;20051;-76
2023/04/22 03:16:22;;;;;;;68.20;52.05;;;6.80;99.90;;;;;;5015917;28;20041;-75
2023/04/22 03:18:48;;;;;;;94.25;59.45;;;6.80;99.90;;;;;;5032669;28;20081;-76
2023/04/22 03:21:14;;;;;;;95.25;60.83;;;6.70;99.90;;;;;;5032437;28;20069;-76
2023/04/22 03:23:42;;;;;;;102.15;61.45;;;6.70;99.90;;;;;;5019526;28;20046;-76
2023/04/22 03:26:08;;;;;;;119.88;67.88;;;6.60;99.90;;;;;;5037517;28;20078;-76
2023/04/22 03:28:33;;;;;;;182.02;75.63;;;6.60;99.90;;;;;;5012999;28;20042;-75
2023/04/22 03:30:59;;;;;;;130.75;68.60;;;6.60;99.90;;;;;;5030161;28;20038;-76
2023/04/22 03:33:27;;;;;;;104.88;62.80;;;6.60;99.90;;;;;;5027791;28;20116;-75
2023/04/22 03:35:54;;;;;;;94.75;67.35;;;6.50;99.90;;;;;;5035601;28;20029;-76
2023/04/22 03:38:19;;;;;;;87.28;65.93;;;6.60;99.90;;;;;;5031767;28;20390;-76
2023/04/22 03:40:45;;;;;;;71.45;59.25;;;6.60;99.90;;;;;;5049898;28;20044;-76
2023/04/22 03:43:10;;;;;;;62.45;54.63;;;6.80;99.90;;;;;;5016487;28;20041;-76
2023/04/22 03:45:39;;;;;;;58.47;52.22;;;7.00;99.90;;;;;;5031320;28;20076;-75
2023/04/22 03:48:04;;;;;;;60.55;52.92;;;7.10;99.90;;;;;;5032862;28;20473;-76
2023/04/22 03:50:30;;;;;;;60.15;52.47;;;7.10;99.90;;;;;;5021174;28;20125;-76
2023/04/22 03:52:56;;;;;;;58.10;51.78;;;7.10;99.90;;;;;;5029456;28;20073;-76
2023/04/22 03:55:24;;;;;;;60.67;53.08;;;7.10;99.90;;;;;;5010577;28;20041;-76
2023/04/22 03:57:50;;;;;;;105.40;58.30;;;7.10;99.90;;;;;;5018480;28;20041;-76
2023/04/22 04:00:18;;;;;;;136.82;62.58;;;7.10;99.90;;;;;;5028411;28;20034;-75
2023/04/22 04:02:46;;;;;;;61.17;48.72;;;7.00;99.90;;;;;;5036566;28;20037;-76
2023/04/22 04:05:12;;;;;;;81.25;52.88;;;6.80;99.90;;;;;;5017995;28;20049;-75
2023/04/22 04:07:38;;;;;;;91.50;58.35;;;6.70;99.90;;;;;;5019160;28;20555;-76
2023/04/22 04:10:06;;;;;;;80.57;54.70;;;6.70;99.90;;;;;;5024176;28;20045;-76
2023/04/22 04:12:32;;;;;;;166.80;63.35;;;6.70;99.90;;;;;;5012709;28;20044;-76
2023/04/22 04:14:57;;;;;;;72.15;54.13;;;6.60;99.90;;;;;;5029447;28;20401;-76
2023/04/22 04:17:24;;;;;;;80.65;55.70;;;6.50;99.90;;;;;;5031645;28;20034;-75
2023/04/22 04:19:51;;;;;;;101.40;61.78;;;6.50;99.90;;;;;;5015514;28;20051;-76
2023/04/22 04:22:20;;;;;;;88.05;60.42;;;6.60;99.90;;;;;;5031836;28;20056;-76
2023/04/22 04:24:46;;;;;;;130.70;71.72;;;6.60;99.90;;;;;;5018371;28;20055;-76
2023/04/22 04:27:14;;;;;;;103.75;64.50;;;6.60;99.90;;;;;;5027748;28;20048;-76
2023/04/22 04:29:40;;;;;;;95.95;63.97;;;6.60;99.90;;;;;;5031932;28;20071;-76
2023/04/22 04:32:07;;;;;;;122.45;70.68;;;6.60;99.90;;;;;;5031942;28;20073;-76
2023/04/22 04:34:33;;;;;;;124.25;71.32;;;6.70;99.90;;;;;;5034033;28;20112;-76
2023/04/22 04:36:59;;;;;;;130.13;74.03;;;6.60;99.90;;;;;;5017839;28;20069;-76
2023/04/22 04:39:27;;;;;;;102.55;67.60;;;6.60;99.90;;;;;;5014724;28;20056;-75
2023/04/22 04:41:54;;;;;;;95.07;68.78;;;6.60;99.90;;;;;;5002591;28;20037;-76
2023/04/22 04:44:22;;;;;;;196.98;90.03;;;6.60;99.90;;;;;;5039265;28;20060;-76
2023/04/22 04:46:49;;;;;;;150.10;74.15;;;6.70;99.90;;;;;;5038079;28;20382;-76
2023/04/22 04:49:17;;;;;;;111.05;74.88;;;6.70;99.90;;;;;;5004840;28;20041;-76
2023/04/22 04:51:42;;;;;;;147.32;79.00;;;6.60;99.90;;;;;;5014201;28;20056;-76
2023/04/22 04:54:08;;;;;;;173.45;82.82;;;6.60;99.90;;;;;;5017261;28;20497;-76
2023/04/22 04:56:34;;;;;;;91.35;72.20;;;6.60;99.90;;;;;;5011071;28;20040;-76
2023/04/22 04:59:00;;;;;;;125.60;81.20;;;6.60;99.90;;;;;;5028150;28;20144;-76
2023/04/22 05:01:25;;;;;;;157.60;92.57;;;6.60;99.90;;;;;;4995745;28;20129;-76
2023/04/22 05:03:51;;;;;;;88.43;74.07;;;6.70;99.90;;;;;;5025020;28;20148;-76
2023/04/22 05:06:20;;;;;;;154.13;95.97;;;6.70;99.90;;;;;;5014059;28;20025;-76
2023/04/22 05:08:45;;;;;;;129.98;89.78;;;6.90;99.90;;;;;;5014891;28;20120;-76
2023/04/22 05:11:11;;;;;;;111.00;83.88;;;7.00;99.90;;;;;;5016728;28;20156;-76
2023/04/22 05:13:37;;;;;;;90.93;75.43;;;7.00;99.90;;;;;;5014061;28;20088;-76
2023/04/22 05:16:02;;;;;;;88.03;75.93;;;7.10;99.90;;;;;;5015542;28;20048;-75
2023/04/22 05:18:28;;;;;;;103.97;81.35;;;7.20;99.90;;;;;;5030383;28;20045;-75
2023/04/22 05:20:54;;;;;;;93.80;79.00;;;7.30;99.90;;;;;;4999756;28;20044;-76
2023/04/22 05:23:19;;;;;;;88.70;77.53;;;7.40;99.90;;;;;;5027478;28;20060;-76
2023/04/22 05:25:45;;;;;;;187.13;100.60;;;7.50;99.90;;;;;;5030585;28;20029;-75
2023/04/22 05:28:11;;;;;;;128.30;88.85;;;7.60;99.90;;;;;;4997270;28;20049;-76
2023/04/22 05:30:37;;;;;;;108.68;84.55;;;7.60;99.90;;;;;;5011251;28;20104;-76
2023/04/22 05:33:03;;;;;;;83.90;72.28;;;7.60;99.90;;;;;;5027780;28;20330;-75
2023/04/22 05:35:34;;;;;;;129.55;87.60;;;7.70;99.90;;;;;;5021631;28;20075;-76
2023/04/22 05:38:01;;;;;;;87.75;75.18;;;7.70;99.90;;;;;;5014538;28;20045;-76
2023/04/22 05:40:27;;;;;;;114.07;87.82;;;7.80;99.90;;;;;;5037645;28;20063;-75
2023/04/22 05:42:53;;;;;;;82.68;73.90;;;7.90;99.90;;;;;;5012893;28;20045;-76
2023/04/22 05:45:19;;;;;;;84.03;74.97;;;8.00;99.90;;;;;;5019593;28;20444;-76
2023/04/22 05:47:44;;;;;;;176.82;99.78;;;8.10;99.90;;;;;;5008724;28;20561;-76
2023/04/22 05:50:10;;;;;;;135.80;96.45;;;8.10;99.90;;;;;;5011184;28;20050;-76
2023/04/22 05:52:36;;;;;;;97.68;83.10;;;8.20;99.90;;;;;;5013579;28;20465;-76
2023/04/22 05:55:01;;;;;;;182.38;105.13;;;8.30;99.90;;;;;;5014051;28;20037;-76
2023/04/22 05:57:27;;;;;;;173.05;102.85;;;8.40;99.90;;;;;;5019807;28;20037;-76
2023/04/22 05:59:53;;;;;;;148.43;100.18;;;8.40;99.90;;;;;;5028394;28;20414;-76
2023/04/22 06:02:18;;;;;;;149.38;99.75;;;8.50;99.90;;;;;;5012996;28;20033;-76
2023/04/22 06:04:44;;;;;;;144.60;97.03;;;8.50;99.90;;;;;;5007931;28;20042;-76
2023/04/22 06:07:10;;;;;;;127.57;92.53;;;8.60;99.90;;;;;;5018483;28;20060;-76
2023/04/22 06:09:35;;;;;;;82.82;73.75;;;8.70;99.90;;;;;;5036755;28;20116;-76
2023/04/22 06:12:01;;;;;;;108.82;84.47;;;8.90;99.90;;;;;;5005693;28;20033;-76
2023/04/22 06:14:26;;;;;;;101.43;83.97;;;8.90;99.90;;;;;;5029306;28;20041;-76
2023/04/22 06:16:52;;;;;;;153.88;97.60;;;9.00;99.90;;;;;;5018963;28;20033;-76
2023/04/22 06:19:18;;;;;;;87.50;78.00;;;9.10;99.90;;;;;;5029394;28;20168;-76
2023/04/22 06:21:47;;;;;;;93.25;78.22;;;9.20;99.90;;;;;;4997661;28;20519;-76
2023/04/22 06:24:13;;;;;;;77.32;69.60;;;9.20;99.90;;;;;;5012192;28;20126;-76
2023/04/22 06:26:44;;;;;;;110.75;86.18;;;9.30;99.90;;;;;;4997878;28;20037;-76
2023/04/22 06:29:09;;;;;;;75.85;68.45;;;9.40;99.90;;;;;;5030236;28;20468;-76
2023/04/22 06:31:35;;;;;;;125.82;89.45;;;9.50;99.90;;;;;;5009050;28;20117;-76
2023/04/22 06:34:01;;;;;;;94.78;78.10;;;9.60;99.90;;;;;;4993664;28;20046;-76
2023/04/22 06:36:31;;;;;;;98.57;76.45;;;9.60;99.90;;;;;;5012915;28;20418;-76
2023/04/22 06:38:57;;;;;;;96.28;77.68;;;9.70;99.90;;;;;;5020952;28;20041;-76
2023/04/22 06:41:23;;;;;;;71.38;64.07;;;9.80;99.90;;;;;;5013705;28;20052;-76
2023/04/22 06:43:51;;;;;;;122.40;80.95;;;10.00;99.90;;;;;;5013434;28;20041;-76
2023/04/22 06:46:16;;;;;;;62.58;56.58;;;10.00;99.90;;;;;;5012921;28;20037;-76
2023/04/22 06:48:42;;;;;;;72.40;64.35;;;10.10;99.90;;;;;;5012759;28;20044;-76
2023/04/22 06:51:08;;;;;;;92.85;73.15;;;10.20;99.90;;;;;;5028804;28;20046;-76
2023/04/22 06:53:36;;;;;;;65.50;59.08;;;10.20;99.90;;;;;;5031372;28;20037;-76
2023/04/22 06:56:01;;;;;;;61.38;55.70;;;10.20;99.90;;;;;;5005774;28;20045;-76
2023/04/22 06:58:27;;;;;;;65.60;59.05;;;10.40;99.90;;;;;;5022491;28;20061;-73
2023/04/22 07:00:52;;;;;;;60.72;54.78;;;10.40;99.90;;;;;;5029706;28;20042;-72
2023/04/22 07:03:18;;;;;;;66.40;59.58;;;10.40;99.90;;;;;;5022646;28;20037;-73
2023/04/22 07:05:43;;;;;;;62.08;56.08;;;10.60;99.90;;;;;;5030282;28;20041;-75
2023/04/22 07:08:10;;;;;;;53.75;49.00;;;10.60;99.90;;;;;;5013236;28;20107;-75
2023/04/22 07:10:36;;;;;;;72.55;62.25;;;10.70;99.90;;;;;;5039126;28;20448;-75
2023/04/22 07:13:01;;;;;;;58.17;52.08;;;10.80;99.90;;;;;;5033689;28;20060;-75
2023/04/22 07:15:27;;;;;;;56.95;51.67;;;10.90;99.90;;;;;;5027379;28;20038;-75
2023/04/22 07:17:55;;;;;;;50.75;46.35;;;11.00;99.90;;;;;;5026533;28;20025;-75
2023/04/22 07:20:21;;;;;;;60.50;54.80;;;11.00;99.90;;;;;;5024435;28;20090;-74
2023/04/22 07:22:47;;;;;;;64.93;58.10;;;11.10;99.90;;;;;;5026375;28;20120;-74
2023/04/22 07:25:12;;;;;;;59.78;53.95;;;11.20;99.90;;;;;;5015245;28;20044;-74
2023/04/22 07:27:38;;;;;;;44.38;40.35;;;11.30;99.90;;;;;;5026072;28;20043;-74
2023/04/22 07:30:06;;;;;;;54.92;49.88;;;11.40;99.90;;;;;;5033165;28;20036;-74
2023/04/22 07:32:32;;;;;;;47.33;43.00;;;11.50;99.90;;;;;;5016658;28;20037;-74
2023/04/22 07:34:57;;;;;;;34.33;31.48;;;11.60;99.90;;;;;;5032873;28;20048;-74
2023/04/22 07:37:23;;;;;;;42.90;39.22;;;11.70;99.90;;;;;;5033033;28;20045;-74
2023/04/22 07:39:48;;;;;;;40.45;36.75;;;11.80;99.90;;;;;;5032036;28;20041;-74
2023/04/22 07:42:14;;;;;;;48.13;43.80;;;11.90;99.90;;;;;;5023171;28;20046;-74
2023/04/22 07:44:40;;;;;;;39.38;36.00;;;12.10;99.90;;;;;;5021239;28;20037;-74
2023/04/22 07:47:07;;;;;;;35.45;32.55;;;12.30;99.90;;;;;;5024083;28;20120;-74
2023/04/22 07:49:33;;;;;;;31.48;28.73;;;12.50;99.90;;;;;;5013179;28;20351;-74
2023/04/22 07:51:58;;;;;;;31.95;29.25;;;12.60;99.90;;;;;;5016972;28;20087;-74
2023/04/22 07:54:24;;;;;;;36.63;33.42;;;12.80;99.90;;;;;;5032137;28;20041;-74
2023/04/22 07:56:50;;;;;;;30.88;28.33;;;12.90;99.90;;;;;;5032545;28;20045;-74
2023/04/22 07:59:15;;;;;;;31.23;28.83;;;13.10;99.90;;;;;;5009388;28;20033;-76
2023/04/22 08:01:41;;;;;;;33.20;30.40;;;13.20;99.90;;;;;;5002856;28;20033;-74
2023/04/22 08:04:07;;;;;;;31.80;28.92;;;13.30;99.90;;;;;;5035224;28;20549;-74
2023/04/22 08:06:33;;;;;;;31.02;28.45;;;13.50;99.90;;;;;;5026715;28;20038;-74
2023/04/22 08:08:58;;;;;;;25.27;23.27;;;13.60;99.90;;;;;;5013588;28;20052;-75
2023/04/22 08:11:24;;;;;;;30.27;27.80;;;13.70;99.90;;;;;;5030435;28;20478;-75
2023/04/22 08:13:49;;;;;;;25.30;23.20;;;13.90;99.90;;;;;;5022259;28;20041;-75
2023/04/22 08:16:18;;;;;;;26.70;24.65;;;14.00;99.90;;;;;;5031921;28;20052;-74
2023/04/22 08:18:43;;;;;;;29.05;26.75;;;14.10;99.90;;;;;;5016687;28;20041;-74
2023/04/22 08:21:11;;;;;;;24.67;22.73;;;14.30;99.90;;;;;;5027667;28;20045;-75
2023/04/22 08:23:37;;;;;;;23.88;21.98;;;14.60;99.90;;;;;;5012832;28;20044;-75
2023/04/22 08:26:03;;;;;;;27.98;25.70;;;14.80;99.90;;;;;;5027313;28;20486;-74
2023/04/22 08:28:28;;;;;;;27.30;25.05;;;15.00;99.90;;;;;;5015584;28;20037;-74
2023/04/22 08:30:57;;;;;;;25.02;23.02;;;15.30;99.90;;;;;;5029645;28;20067;-74
2023/04/22 08:33:22;;;;;;;19.73;18.13;;;15.50;99.90;;;;;;5031721;28;20083;-74
2023/04/22 08:35:49;;;;;;;19.92;18.33;;;15.90;99.90;;;;;;5015503;28;20457;-75
2023/04/22 08:38:14;;;;;;;18.17;16.67;;;16.50;99.90;;;;;;5032205;28;20041;-75
2023/04/22 08:40:41;;;;;;;19.48;17.88;;;17.40;99.90;;;;;;5031802;28;20038;-75
2023/04/22 08:43:07;;;;;;;17.35;15.98;;;18.10;99.90;;;;;;5015290;28;20038;-74
2023/04/22 08:45:33;;;;;;;17.10;15.80;;;18.80;99.90;;;;;;5015013;28;20117;-75
2023/04/22 08:47:59;;;;;;;14.82;13.60;;;19.50;99.90;;;;;;5032134;28;20038;-75
2023/04/22 08:50:25;;;;;;;16.08;14.68;;;20.00;99.90;;;;;;5048403;28;20034;-75
2023/04/22 08:52:51;;;;;;;14.50;13.40;;;20.40;99.90;;;;;;5031806;28;20049;-75
2023/04/22 08:55:16;;;;;;;13.77;12.68;;;20.50;99.90;;;;;;5031695;28;20033;-75
2023/04/22 08:57:46;;;;;;;13.68;12.43;;;20.50;99.90;;;;;;5031704;28;20041;-75
2023/04/22 09:00:12;;;;;;;13.95;12.68;;;20.30;99.90;;;;;;5031676;28;20087;-75
2023/04/22 09:02:43;;;;;;;12.50;11.50;;;20.30;99.90;;;;;;5030690;28;20120;-75
2023/04/22 09:05:10;;;;;;;13.32;12.30;;;20.40;99.90;;;;;;5031498;28;20588;-75
2023/04/22 09:07:37;;;;;;;12.25;11.35;;;20.60;99.90;;;;;;5014810;28;20053;-75
2023/04/22 09:10:03;;;;;;;12.40;11.40;;;20.80;99.90;;;;;;5015317;28;20045;-75
2023/04/22 09:12:34;;;;;;;11.80;10.75;;;21.00;99.90;;;;;;5030955;28;20441;-78
2023/04/22 09:15:13;;;;;;;13.30;12.23;;;21.20;99.90;;;;;;5025508;28;20049;-75
2023/04/22 09:17:40;;;;;;;12.20;11.20;;;20.90;99.90;;;;;;5009830;28;20045;-75
2023/04/22 09:20:09;;;;;;;13.13;12.13;;;20.40;99.90;;;;;;5014139;28;20045;-75
2023/04/22 09:22:46;;;;;;;12.70;11.63;;;20.00;99.90;;;;;;5031016;28;20093;-75
2023/04/22 09:25:15;;;;;;;13.48;12.38;;;19.70;99.90;;;;;;5037391;28;20052;-75
2023/04/22 09:27:42;;;;;;;12.82;11.73;;;19.50;99.90;;;;;;5014378;28;20132;-75
2023/04/22 09:30:09;;;;;;;13.52;12.50;;;19.60;99.90;;;;;;5029322;28;20095;-75
2023/04/22 09:32:34;;;;;;;13.38;12.38;;;19.70;99.90;;;;;;5014829;28;20034;-75
2023/04/22 09:35:04;;;;;;;13.70;12.50;;;19.80;99.90;;;;;;5018697;28;20030;-75
2023/04/22 09:37:29;;;;;;;11.68;10.57;;;19.90;99.90;;;;;;5013964;28;20124;-75
2023/04/22 09:39:55;;;;;;;12.30;11.40;;;19.90;99.90;;;;;;5014038;28;20129;-75
2023/04/22 09:42:21;;;;;;;11.63;10.52;;;19.90;99.90;;;;;;5022405;28;20065;-75
2023/04/22 09:44:57;;;;;;;11.27;10.20;;;19.90;99.90;;;;;;5024764;28;20091;-75
2023/04/22 09:47:23;;;;;;;12.05;10.93;;;19.80;99.90;;;;;;5016330;28;20124;-75
2023/04/22 09:49:49;;;;;;;11.55;10.55;;;19.80;99.90;;;;;;5024555;28;20470;-75
2023/04/22 09:52:26;;;;;;;13.75;12.63;;;19.90;99.90;;;;;;5027197;28;20125;-75
2023/04/22 09:54:53;;;;;;;12.73;11.73;;;20.00;99.90;;;;;;5036986;28;20033;-75
2023/04/22 09:57:20;;;;;;;12.52;11.43;;;20.20;99.90;;;;;;5028205;28;20037;-76
2023/04/22 09:59:57;;;;;;;11.73;10.60;;;20.50;99.90;;;;;;5012385;28;20081;-76
2023/04/22 10:02:28;;;;;;;11.10;10.10;;;20.70;99.90;;;;;;5013650;28;20041;-76
2023/04/22 10:05:01;;;;;;;10.95;9.82;;;20.90;99.90;;;;;;5028471;28;20112;-76
2023/04/22 10:07:31;;;;;;;11.43;10.52;;;21.10;99.90;;;;;;5014791;28;20590;-76
2023/04/22 10:10:01;;;;;;;10.85;9.95;;;21.40;99.90;;;;;;5028219;28;20029;-76
2023/04/22 10:12:27;;;;;;;11.18;10.27;;;21.60;99.90;;;;;;5012298;28;20449;-76
2023/04/22 10:14:53;;;;;;;10.45;9.38;;;21.90;99.90;;;;;;5013302;28;20064;-76
2023/04/22 10:17:30;;;;;;;10.02;9.13;;;22.30;99.90;;;;;;5012613;28;20074;-76
2023/04/22 10:20:04;;;;;;;9.65;8.70;;;22.50;99.90;;;;;;5012572;28;20124;-76
2023/04/22 10:22:34;;;;;;;9.20;8.40;;;22.60;99.90;;;;;;5028378;28;20052;-76
2023/04/22 10:25:10;;;;;;;8.27;7.47;;;22.60;99.90;;;;;;5011878;28;20052;-77
2023/04/22 10:27:37;;;;;;;9.52;8.73;;;22.60;99.90;;;;;;5009380;28;20037;-76
2023/04/22 10:30:03;;;;;;;9.05;8.35;;;22.60;99.90;;;;;;5031183;28;20037;-77
2023/04/22 10:32:39;;;;;;;9.43;8.63;;;22.70;99.90;;;;;;5013499;28;20034;-77
2023/04/22 10:35:13;;;;;;;9.70;8.90;;;22.90;99.90;;;;;;5030444;28;20576;-80
2023/04/22 10:37:44;;;;;;;9.80;8.93;;;23.00;99.90;;;;;;5017409;28;20037;-76
2023/04/22 10:40:15;;;;;;;9.95;9.05;;;23.00;99.90;;;;;;5028402;28;20033;-76
2023/04/22 10:42:46;;;;;;;9.98;9.07;;;23.10;99.90;;;;;;5029676;28;20033;-77
2023/04/22 10:45:16;;;;;;;10.05;9.25;;;23.20;99.90;;;;;;4999982;28;20074;-76
2023/04/22 10:47:42;;;;;;;10.07;9.20;;;23.20;99.90;;;;;;4997800;28;20038;-77
2023/04/22 10:50:17;;;;;;;10.27;8.57;;;23.50;99.90;;;;;;5032525;28;20028;-77
2023/04/22 10:52:58;;;;;;;10.20;9.30;;;23.80;99.90;;;;;;5021963;28;20044;-77
2023/04/22 10:55:25;;;;;;;9.95;9.15;;;24.00;99.90;;;;;;5017913;28;20045;-78
2023/04/22 10:57:52;;;;;;;8.77;7.95;;;24.30;99.90;;;;;;5018240;28;20107;-78
2023/04/22 11:00:25;;;;;;;8.77;8.02;;;24.50;99.90;;;;;;5018496;28;20128;-77
2023/04/22 11:03:06;;;;;;;9.70;8.90;;;24.50;99.90;;;;;;5034110;28;20501;-76
2023/04/22 11:05:34;;;;;;;9.32;8.52;;;24.70;99.90;;;;;;5026951;28;20050;-76
2023/04/22 11:08:27;;;;;;;9.73;8.85;;;24.90;99.90;;;;;;5037426;28;20029;-76
2023/04/22 11:11:07;;;;;;;10.88;9.98;;;25.20;99.90;;;;;;5025304;28;20124;-76
2023/04/22 11:13:33;;;;;;;10.75;9.75;;;25.40;95.20;;;;;;5016810;28;20045;-76
2023/04/22 11:15:59;;;;;;;10.18;9.25;;;25.10;81.40;;;;;;5035319;28;20043;-76
2023/04/22 11:18:26;;;;;;;10.02;9.20;;;24.50;99.90;;;;;;5013519;28;20040;-77
2023/04/22 11:20:52;;;;;;;11.25;10.25;;;24.20;99.90;;;;;;5041572;28;20051;-77
2023/04/22 11:23:26;;;;;;;9.57;8.68;;;24.30;99.90;;;;;;5030858;28;20048;-78
2023/04/22 11:25:56;;;;;;;9.05;8.25;;;24.40;99.90;;;;;;5016927;28;20037;-77
2023/04/22 11:28:22;;;;;;;9.43;8.55;;;24.40;99.90;;;;;;5033265;28;20493;-77
2023/04/22 11:30:49;;;;;;;8.77;8.07;;;24.10;99.90;;;;;;5016345;28;20029;-76
2023/04/22 11:33:15;;;;;;;9.32;8.57;;;23.70;99.90;;;;;;5021950;28;20037;-76
2023/04/22 11:35:41;;;;;;;9.55;8.75;;;23.30;99.90;;;;;;5039229;28;20526;-76
2023/04/22 11:38:10;;;;;;;10.32;9.43;;;23.20;99.90;;;;;;5035874;28;20041;-76
2023/04/22 11:40:41;;;;;;;11.57;10.57;;;22.90;99.90;;;;;;5033281;28;20059;-76
2023/04/22 11:43:08;;;;;;;9.77;8.93;;;22.50;99.90;;;;;;5007272;28;20034;-76
2023/04/22 11:45:36;;;;;;;11.07;10.07;;;22.30;99.90;;;;;;4996468;28;20034;-76
2023/04/22 11:48:05;;;;;;;10.95;10.05;;;22.00;99.90;;;;;;5013613;28;20516;-76
2023/04/22 11:50:35;;;;;;;10.77;9.80;;;21.80;99.90;;;;;;5043868;28;20041;-77
2023/04/22 11:53:03;;;;;;;10.70;9.73;;;21.60;99.90;;;;;;5019231;28;20029;-76
2023/04/22 11:55:34;;;;;;;10.20;9.30;;;21.60;99.90;;;;;;5002125;28;20045;-77
2023/04/22 11:58:12;;;;;;;10.02;9.18;;;21.60;99.90;;;;;;5017832;28;20896;-78
2023/04/22 12:00:48;;;;;;;9.80;9.00;;;21.90;99.90;;;;;;5031300;28;20052;-79
2023/04/22 12:03:26;;;;;;;10.27;9.40;;;22.20;99.90;;;;;;5037530;28;20532;-80
2023/04/22 12:06:31;;;;;;;10.35;9.55;;;22.70;99.90;;;;;;5031369;28;20084;-80
2023/04/22 12:08:59;;;;;;;;;;;23.20;99.90;;;;;;5033449;28;20041;-80
2023/04/22 12:11:54;;;;;;;8.23;7.47;;;23.80;95.00;;;;;;5026848;28;20400;-79
2023/04/22 12:14:29;;;;;;;8.95;8.00;;;24.50;99.90;;;;;;5022342;28;20052;-79
2023/04/22 12:16:57;;;;;;;8.68;7.97;;;24.70;99.90;;;;;;5021667;28;20490;-80
2023/04/22 12:19:29;;;;;;;8.55;7.75;;;24.30;99.90;;;;;;5023435;28;20041;-80
2023/04/22 12:22:03;;;;;;;9.05;8.15;;;23.70;99.90;;;;;;5008925;28;20041;-80
2023/04/22 12:27:35;;;;;;;8.93;8.02;;;23.20;99.90;;;;;;5033374;28;20533;-80
2023/04/22 12:30:11;;;;;;;8.88;8.07;;;23.60;99.90;;;;;;5023739;28;20502;-80
2023/04/22 12:32:48;;;;;;;8.90;8.10;;;23.90;99.90;;;;;;5021548;28;20033;-80
2023/04/22 12:38:21;;;;;;;9.18;8.30;;;23.40;99.90;;;;;;5035395;28;20113;-80
2023/04/22 12:40:52;;;;;;;8.73;7.93;;;23.00;99.90;;;;;;5008946;28;20124;-81